Weather at Wolverhampton Halfpenny Green Airport

Public forecast

Using degrees Celsius for public forecast. Weather courtesy of forecast.io.

Closest aviation weather report (METAR) to Wolverhampton Halfpenny Green Airport

Report is more than 6 hours old.

Closest report is DCAE Cosford Air Base, 7.5 nm (14.0 km) NNW. Retrieved 2020/10/27 12:50 UTC (8 hours ago):

EGWC 271250Z 19010KT 2000 -DZ FEW007 BKN009 10/09 Q0990 RMK YLO2

Closest aviation forecast (TAF) to Wolverhampton Halfpenny Green Airport

Closest forecast is Birmingham International Airport, 19.1 nm (35.3 km) ESE. Retrieved 2020/10/27 18:00 UTC (3 hours ago):

TAF EGBB 271658Z 2718/2818 25008KT 9999 SCT025 PROB30 TEMPO 2718/2720 7000 SHRA PROB30 TEMPO 2809/2812 7000 SHRA TEMPO 2812/2818 26015G25KT 7000 SHRA